Time;durP1;ratioP1;P1;durP2;ratioP2;P2;SDS_P1;SDS_P2;PMS_P1;PMS_P2;Temp;Humidity;BMP_temperature;BMP_pressure;BME280_temperature;BME280_humidity;BME280_pressure;Samples;Min_cycle;Max_cycle;Signal;HPM_P1;HPM_P2
2022/11/18 00:00:30;;;;;;;4.35;2.20;;;14.20;84.00;;;;;;5034576;28;20044;-80
2022/11/18 00:02:56;;;;;;;4.45;2.10;;;14.20;84.00;;;;;;5035606;28;20032;-81
2022/11/18 00:05:22;;;;;;;3.53;2.22;;;14.20;83.90;;;;;;5035602;28;20052;-80
2022/11/18 00:07:47;;;;;;;3.95;2.10;;;14.20;83.80;;;;;;5035942;28;20376;-79
2022/11/18 00:10:13;;;;;;;4.43;2.20;;;14.20;83.70;;;;;;5035564;28;20036;-79
2022/11/18 00:15:22;;;;;;;4.05;2.03;;;14.20;83.50;;;;;;5038043;28;20048;-80
2022/11/18 00:17:48;;;;;;;3.85;2.20;;;14.30;83.50;;;;;;5037446;28;20025;-81
2022/11/18 00:20:14;;;;;;;4.28;2.30;;;14.30;83.40;;;;;;5037490;28;20022;-81
2022/11/18 00:22:39;;;;;;;4.28;2.13;;;14.30;83.40;;;;;;5037409;28;20025;-80
2022/11/18 00:25:05;;;;;;;3.72;2.05;;;14.30;83.40;;;;;;5036699;28;20025;-80
2022/11/18 00:27:31;;;;;;;3.35;1.88;;;14.30;83.40;;;;;;5036617;28;20018;-80
2022/11/18 00:29:57;;;;;;;3.40;2.00;;;14.30;83.40;;;;;;5035677;28;20473;-81
2022/11/18 00:32:22;;;;;;;4.28;2.40;;;14.30;83.50;;;;;;5018918;28;20017;-79
2022/11/18 00:34:48;;;;;;;4.30;2.30;;;14.30;83.70;;;;;;5036407;28;20049;-80
2022/11/18 00:37:14;;;;;;;3.97;2.20;;;14.20;83.60;;;;;;5035160;28;20029;-80
2022/11/18 00:39:39;;;;;;;4.38;2.22;;;14.30;83.80;;;;;;5034678;28;20028;-80
2022/11/18 00:44:49;;;;;;;3.75;2.10;;;14.20;83.80;;;;;;5035807;28;20032;-81
2022/11/18 00:47:14;;;;;;;4.07;2.40;;;14.20;83.80;;;;;;5037934;28;20045;-81
2022/11/18 00:49:40;;;;;;;3.63;2.08;;;14.20;83.80;;;;;;5037229;28;20017;-79
2022/11/18 00:52:05;;;;;;;5.07;2.38;;;14.20;83.80;;;;;;5038490;28;20073;-81
2022/11/18 00:54:31;;;;;;;3.88;2.20;;;14.20;83.90;;;;;;5037418;28;20385;-80
2022/11/18 00:56:57;;;;;;;3.97;2.17;;;14.20;83.80;;;;;;5036286;28;20044;-80
2022/11/18 00:59:22;;;;;;;3.33;2.00;;;14.20;83.80;;;;;;5017015;28;20014;-79
2022/11/18 01:01:48;;;;;;;4.22;2.15;;;14.20;83.90;;;;;;5034152;28;20469;-80
2022/11/18 01:04:14;;;;;;;3.80;2.20;;;14.20;83.90;;;;;;5034443;28;20017;-79
2022/11/18 01:06:40;;;;;;;3.90;2.20;;;14.20;84.40;;;;;;5034216;28;20087;-82
2022/11/18 01:09:05;;;;;;;4.22;2.20;;;14.20;83.90;;;;;;5038370;28;20080;-80
2022/11/18 01:14:15;;;;;;;5.28;2.50;;;14.20;83.90;;;;;;5034915;28;20389;-79
2022/11/18 01:16:41;;;;;;;4.25;2.40;;;14.20;83.80;;;;;;5034450;28;20021;-79
2022/11/18 01:19:06;;;;;;;3.78;2.20;;;14.20;83.80;;;;;;5032897;28;20028;-79
2022/11/18 01:21:32;;;;;;;3.67;2.03;;;14.20;83.80;;;;;;5033571;28;20021;-80
2022/11/18 01:23:57;;;;;;;4.45;2.53;;;14.20;83.80;;;;;;5034475;28;20021;-79
2022/11/18 01:26:23;;;;;;;4.10;2.30;;;14.20;83.80;;;;;;5032694;28;20022;-80
2022/11/18 01:28:48;;;;;;;3.65;2.20;;;14.20;83.70;;;;;;5032606;28;20021;-79
2022/11/18 01:31:17;;;;;;;3.78;2.25;;;14.20;83.50;;;;;;5032702;28;20445;-77
2022/11/18 01:33:44;;;;;;;4.38;2.30;;;14.20;83.40;;;;;;5018896;28;20466;-79
2022/11/18 01:36:18;;;;;;;3.85;2.20;;;14.20;83.40;;;;;;5020301;28;20393;-81
2022/11/18 01:38:44;;;;;;;4.18;2.22;;;14.20;83.30;;;;;;5032783;28;20025;-80
2022/11/18 01:41:10;;;;;;;33.75;4.07;;;14.20;83.20;;;;;;5060015;28;20032;-80
2022/11/18 01:43:53;;;;;;;3.70;2.15;;;14.30;83.30;;;;;;5041668;28;20107;-81
2022/11/18 01:46:20;;;;;;;3.92;2.30;;;14.20;83.30;;;;;;5041561;28;20043;-80
2022/11/18 01:48:50;;;;;;;4.57;2.60;;;14.20;83.30;;;;;;5041657;28;20017;-80
2022/11/18 01:51:18;;;;;;;3.90;2.30;;;14.20;83.40;;;;;;5040633;28;20021;-80
2022/11/18 01:53:52;;;;;;;3.83;2.30;;;14.20;83.50;;;;;;5041270;28;20028;-80
2022/11/18 01:56:24;;;;;;;3.72;2.30;;;14.20;83.50;;;;;;5040993;28;20020;-80
2022/11/18 01:59:02;;;;;;;3.92;2.38;;;14.20;83.60;;;;;;5040448;28;20495;-81
2022/11/18 02:01:28;;;;;;;4.65;2.40;;;14.20;83.70;;;;;;5058048;28;20025;-79
2022/11/18 02:03:54;;;;;;;4.13;2.35;;;14.20;83.70;;;;;;5040264;28;20485;-80
2022/11/18 02:06:20;;;;;;;3.97;2.30;;;14.20;83.70;;;;;;5040104;28;20501;-79
2022/11/18 02:08:47;;;;;;;3.75;2.30;;;14.20;83.70;;;;;;5058146;28;20021;-80
2022/11/18 02:14:01;;;;;;;3.78;2.40;;;14.10;83.70;;;;;;5057848;28;20087;-79
2022/11/18 02:16:39;;;;;;;4.40;2.63;;;14.20;83.80;;;;;;5039248;28;20059;-79
2022/11/18 02:19:39;;;;;;;3.30;2.20;;;14.10;83.70;;;;;;5038920;28;20036;-79
2022/11/18 02:22:43;;;;;;;3.85;2.38;;;14.10;83.70;;;;;;5038663;28;20404;-80
2022/11/18 02:25:41;;;;;;;4.50;2.60;;;14.10;83.70;;;;;;5039038;28;20126;-79
2022/11/18 02:28:21;;;;;;;3.95;2.35;;;14.20;83.80;;;;;;5056687;28;20078;-79
2022/11/18 02:31:06;;;;;;;4.32;2.60;;;14.10;83.70;;;;;;5038281;28;20158;-79
2022/11/18 02:33:44;;;;;;;4.68;2.70;;;14.20;83.80;;;;;;5038911;28;20033;-79
2022/11/18 02:36:20;;;;;;;3.47;2.40;;;14.10;83.70;;;;;;5038188;28;20025;-80
2022/11/18 02:38:52;;;;;;;4.18;2.50;;;14.10;83.70;;;;;;5029764;28;20413;-81
2022/11/18 02:41:26;;;;;;;3.85;2.50;;;14.10;83.70;;;;;;5021111;28;20025;-82
2022/11/18 02:43:57;;;;;;;4.68;2.58;;;14.10;83.70;;;;;;5019844;28;20156;-80
2022/11/18 02:46:28;;;;;;;5.13;2.45;;;14.10;83.70;;;;;;5020710;28;20047;-80
2022/11/18 02:48:55;;;;;;;4.57;2.83;;;14.10;84.00;;;;;;5020137;28;20032;-80
2022/11/18 02:51:25;;;;;;;3.83;2.40;;;14.10;83.30;;;;;;5037780;28;20036;-80
2022/11/18 02:53:54;;;;;;;4.32;2.47;;;14.10;83.30;;;;;;5030518;28;20043;-81
2022/11/18 02:56:20;;;;;;;3.97;2.47;;;14.20;83.20;;;;;;5042211;28;20028;-81
2022/11/18 02:58:46;;;;;;;4.07;2.35;;;14.20;83.20;;;;;;5059598;28;20031;-80
2022/11/18 03:01:23;;;;;;;4.10;2.40;;;14.20;83.10;;;;;;5040936;28;20419;-80
2022/11/18 03:03:49;;;;;;;4.38;2.53;;;14.20;83.20;;;;;;5041559;28;20082;-79
2022/11/18 03:06:27;;;;;;;4.95;2.78;;;14.20;83.10;;;;;;5040727;28;20477;-80
2022/11/18 03:09:27;;;;;;;4.85;2.90;;;14.20;83.20;;;;;;5058596;28;20013;-80
2022/11/18 03:12:23;;;;;;;4.40;2.90;;;14.20;83.30;;;;;;5040089;28;20021;-81
2022/11/18 03:15:06;;;;;;;5.15;2.70;;;14.20;83.50;;;;;;5058172;28;20021;-80
2022/11/18 03:17:57;;;;;;;4.25;2.80;;;14.20;83.50;;;;;;5057091;28;20164;-80
2022/11/18 03:20:35;;;;;;;4.38;2.65;;;14.20;83.60;;;;;;5039332;28;20376;-81
2022/11/18 03:23:27;;;;;;;4.43;2.70;;;14.10;83.60;;;;;;5057106;28;20061;-80
2022/11/18 03:26:03;;;;;;;4.70;2.65;;;14.10;83.60;;;;;;5056880;28;20746;-81
2022/11/18 03:28:52;;;;;;;4.47;2.70;;;14.10;83.70;;;;;;5039230;28;20047;-79
2022/11/18 03:31:27;;;;;;;4.25;2.55;;;14.10;83.60;;;;;;5056069;28;20488;-80
2022/11/18 03:34:06;;;;;;;4.93;2.70;;;14.10;83.70;;;;;;5056379;28;20025;-79
2022/11/18 03:36:37;;;;;;;5.07;2.90;;;14.10;83.70;;;;;;5038229;28;20052;-81
2022/11/18 03:39:05;;;;;;;4.65;2.78;;;14.10;83.70;;;;;;5056087;28;20480;-79
2022/11/18 03:41:38;;;;;;;4.35;2.75;;;14.10;83.70;;;;;;5037862;28;20025;-80
2022/11/18 03:44:10;;;;;;;4.18;2.53;;;14.10;83.70;;;;;;5033863;28;20033;-81
2022/11/18 03:46:47;;;;;;;4.72;2.78;;;14.10;83.70;;;;;;5037261;28;20460;-79
2022/11/18 03:49:18;;;;;;;4.82;2.80;;;14.10;83.70;;;;;;5038202;28;20025;-79
2022/11/18 03:51:50;;;;;;;4.25;2.70;;;14.10;83.70;;;;;;5060300;28;20020;-79
2022/11/18 03:54:28;;;;;;;5.07;3.10;;;14.10;84.20;;;;;;5055558;28;20036;-78
2022/11/18 03:56:58;;;;;;;5.15;2.90;;;14.10;84.20;;;;;;5036205;28;20032;-79
2022/11/18 03:59:30;;;;;;;4.75;2.90;;;14.10;83.70;;;;;;5055080;28;20358;-79
2022/11/18 04:02:03;;;;;;;4.57;2.60;;;14.10;83.70;;;;;;5036136;28;20074;-80
2022/11/18 04:04:29;;;;;;;4.97;2.92;;;14.10;83.70;;;;;;5054572;28;20027;-81
2022/11/18 04:07:04;;;;;;;4.97;3.08;;;14.10;83.60;;;;;;5055678;28;20033;-79
2022/11/18 04:09:42;;;;;;;5.30;3.10;;;14.10;83.50;;;;;;5039538;28;20028;-78
2022/11/18 04:12:13;;;;;;;4.70;2.90;;;14.10;83.40;;;;;;5037713;28;20426;-79
2022/11/18 04:14:41;;;;;;;5.20;2.90;;;14.10;83.30;;;;;;5058457;28;20099;-81
2022/11/18 04:17:12;;;;;;;4.57;2.80;;;14.20;83.20;;;;;;5058251;28;20055;-79
2022/11/18 04:19:39;;;;;;;4.80;3.05;;;14.30;83.30;;;;;;5057857;28;20048;-79
2022/11/18 04:22:05;;;;;;;5.25;3.10;;;14.20;83.20;;;;;;5039023;28;20025;-79
2022/11/18 04:24:31;;;;;;;4.75;2.88;;;14.20;83.20;;;;;;5057854;28;20033;-79
2022/11/18 04:26:56;;;;;;;4.90;2.88;;;14.20;83.20;;;;;;5056929;28;20536;-79
2022/11/18 04:29:22;;;;;;;4.68;2.90;;;14.20;83.20;;;;;;5035978;28;20020;-79
2022/11/18 04:31:48;;;;;;;4.90;2.88;;;14.20;83.30;;;;;;5035841;28;20017;-79
2022/11/18 04:34:13;;;;;;;4.78;3.05;;;14.20;83.50;;;;;;5035988;28;20040;-79
2022/11/18 04:36:39;;;;;;;4.45;2.95;;;14.20;83.50;;;;;;5035874;28;20032;-79
2022/11/18 04:39:04;;;;;;;4.88;3.10;;;14.10;83.50;;;;;;5036005;28;20029;-81
2022/11/18 04:42:15;;;;;;;5.70;2.92;;;14.20;83.60;;;;;;5035425;28;20036;-79
2022/11/18 04:44:16;;;;;;;4.70;3.13;;;14.10;83.60;;;;;;5046286;28;20064;-79
2022/11/18 04:46:43;;;;;;;4.85;3.10;;;14.10;83.60;;;;;;5053109;28;20039;-80
2022/11/18 04:49:10;;;;;;;5.28;3.17;;;14.10;83.70;;;;;;5040023;28;20084;-81
2022/11/18 04:51:36;;;;;;;6.07;3.63;;;14.00;83.60;;;;;;5039729;28;20033;-79
2022/11/18 04:54:02;;;;;;;4.95;3.10;;;14.10;83.70;;;;;;5039424;28;20575;-81
2022/11/18 04:56:28;;;;;;;4.88;3.00;;;14.10;83.70;;;;;;5026722;28;20116;-80
2022/11/18 04:58:53;;;;;;;5.35;3.30;;;14.10;83.70;;;;;;5016959;28;20144;-79
2022/11/18 05:01:19;;;;;;;4.93;3.30;;;14.10;83.70;;;;;;5018146;28;20029;-79
2022/11/18 05:03:44;;;;;;;5.53;3.50;;;14.00;83.70;;;;;;5017855;28;20029;-79
2022/11/18 05:06:10;;;;;;;5.50;3.30;;;14.10;83.70;;;;;;5036811;28;20043;-79
2022/11/18 05:08:36;;;;;;;4.93;3.03;;;14.10;83.70;;;;;;5019767;28;20048;-79
2022/11/18 05:13:50;;;;;;;5.65;3.15;;;14.10;83.70;;;;;;5045655;28;20495;-83
2022/11/18 05:16:16;;;;;;;4.97;3.08;;;14.10;83.70;;;;;;5027942;28;20498;-81
2022/11/18 05:18:41;;;;;;;4.28;3.00;;;14.10;83.70;;;;;;5023077;28;20029;-75
2022/11/18 05:21:07;;;;;;;5.15;3.22;;;14.10;83.70;;;;;;5033306;28;20025;-77
2022/11/18 05:23:33;;;;;;;5.43;3.10;;;14.10;83.70;;;;;;5053487;28;20513;-79
2022/11/18 05:26:03;;;;;;;5.20;3.38;;;14.10;83.70;;;;;;5037209;28;20056;-75
2022/11/18 05:28:29;;;;;;;5.65;3.58;;;14.10;83.60;;;;;;5039552;28;20021;-77
2022/11/18 05:30:54;;;;;;;4.85;3.10;;;14.10;83.50;;;;;;5022295;28;20025;-74
2022/11/18 05:33:20;;;;;;;6.00;3.33;;;14.10;83.40;;;;;;5035335;28;20025;-75
2022/11/18 05:35:45;;;;;;;5.05;3.17;;;14.10;83.20;;;;;;5053022;28;20634;-77
2022/11/18 05:38:11;;;;;;;5.30;2.92;;;14.10;83.20;;;;;;5054572;28;20074;-76
2022/11/18 05:40:36;;;;;;;5.30;3.38;;;14.10;83.20;;;;;;5040591;28;20468;-78
2022/11/18 05:43:11;;;;;;;5.40;3.20;;;14.20;83.20;;;;;;5037220;28;20465;-80
2022/11/18 05:45:40;;;;;;;5.32;3.25;;;14.20;83.10;;;;;;5035266;28;20048;-82
2022/11/18 05:48:06;;;;;;;5.88;3.58;;;14.20;83.20;;;;;;5022896;28;20025;-80
2022/11/18 05:50:35;;;;;;;6.30;3.40;;;14.10;83.20;;;;;;5041679;28;20025;-80
2022/11/18 05:53:01;;;;;;;5.60;3.38;;;14.10;83.30;;;;;;5040879;28;20439;-81
2022/11/18 05:55:32;;;;;;;5.70;3.30;;;14.10;83.40;;;;;;5037585;28;20108;-80
2022/11/18 05:57:58;;;;;;;6.07;3.50;;;14.10;83.50;;;;;;5041975;28;20075;-80
2022/11/18 06:00:23;;;;;;;7.07;3.60;;;14.10;83.50;;;;;;5037486;28;20044;-81
2022/11/18 06:02:52;;;;;;;5.93;3.47;;;14.10;83.60;;;;;;5038866;28;20480;-82
2022/11/18 06:05:20;;;;;;;6.47;3.53;;;14.10;83.60;;;;;;5021551;28;20032;-79
2022/11/18 06:07:46;;;;;;;5.45;3.30;;;14.00;83.60;;;;;;5024546;28;20031;-81
2022/11/18 06:10:17;;;;;;;5.47;3.05;;;14.10;83.70;;;;;;5022005;28;20025;-80
2022/11/18 06:12:46;;;;;;;5.93;3.15;;;14.10;83.80;;;;;;5053495;28;20488;-80
2022/11/18 06:15:22;;;;;;;5.93;3.40;;;14.00;83.70;;;;;;5034798;28;20028;-78
2022/11/18 06:17:54;;;;;;;6.05;3.53;;;14.10;83.80;;;;;;5036276;28;20025;-81
2022/11/18 06:20:20;;;;;;;9.18;4.45;;;14.00;83.80;;;;;;5038175;28;20014;-85
2022/11/18 06:22:49;;;;;;;11.05;5.75;;;14.10;83.10;;;;;;5029943;28;20064;-83
2022/11/18 06:25:15;;;;;;;11.05;5.78;;;14.00;81.90;;;;;;5038609;28;20044;-81
2022/11/18 06:27:42;;;;;;;9.52;5.38;;;14.00;81.90;;;;;;5054427;28;20469;-78
2022/11/18 06:30:08;;;;;;;10.02;5.28;;;14.00;82.30;;;;;;5043097;28;20026;-78
2022/11/18 06:32:34;;;;;;;11.43;5.25;;;14.00;82.50;;;;;;5047126;28;20017;-82
2022/11/18 06:34:59;;;;;;;12.20;5.03;;;14.10;82.50;;;;;;5050544;28;20052;-82
2022/11/18 06:37:25;;;;;;;7.90;4.55;;;14.00;82.60;;;;;;5049429;28;20527;-83
2022/11/18 06:39:51;;;;;;;11.50;5.28;;;14.10;82.80;;;;;;5066590;28;20028;-78
2022/11/18 06:45:01;;;;;;;10.38;4.97;;;14.00;82.80;;;;;;5061910;28;20075;-79
2022/11/18 06:47:27;;;;;;;9.10;4.65;;;14.00;82.80;;;;;;5061897;28;20009;-79
2022/11/18 06:49:52;;;;;;;8.30;4.68;;;14.00;82.80;;;;;;5060848;28;20036;-78
2022/11/18 06:52:18;;;;;;;9.95;4.50;;;14.10;82.80;;;;;;5043388;28;20017;-81
2022/11/18 06:54:43;;;;;;;7.72;4.40;;;14.10;82.70;;;;;;5039742;28;20033;-78
2022/11/18 06:57:09;;;;;;;8.15;4.30;;;14.10;82.80;;;;;;5055223;28;20063;-76
2022/11/18 06:59:34;;;;;;;9.20;4.40;;;14.10;82.80;;;;;;5038999;28;20013;-77
2022/11/18 07:02:00;;;;;;;8.63;3.88;;;14.20;82.80;;;;;;5037814;28;20023;-79
2022/11/18 07:04:25;;;;;;;8.10;4.50;;;14.20;82.90;;;;;;5038078;28;20029;-75
2022/11/18 07:06:51;;;;;;;8.70;4.18;;;14.20;83.50;;;;;;5040573;28;20033;-78
2022/11/18 07:09:16;;;;;;;6.45;4.07;;;14.10;83.00;;;;;;5044682;28;20025;-79
2022/11/18 07:11:42;;;;;;;7.70;4.70;;;14.10;83.20;;;;;;5043734;28;20373;-80
2022/11/18 07:14:08;;;;;;;6.30;4.10;;;14.20;83.40;;;;;;5032353;28;20048;-80
2022/11/18 07:16:35;;;;;;;7.72;4.40;;;14.10;83.40;;;;;;5042783;28;20078;-79
2022/11/18 07:19:01;;;;;;;9.55;4.43;;;14.10;83.50;;;;;;5045500;28;20027;-80
2022/11/18 07:21:28;;;;;;;9.65;4.13;;;14.10;83.60;;;;;;5042382;28;20088;-81
2022/11/18 07:23:55;;;;;;;6.32;3.88;;;14.10;83.60;;;;;;5042798;28;20033;-81
2022/11/18 07:26:21;;;;;;;7.25;4.18;;;14.10;83.70;;;;;;5043788;28;20259;-78
2022/11/18 07:28:47;;;;;;;8.80;4.45;;;14.00;83.70;;;;;;5045343;28;20544;-79
2022/11/18 07:31:18;;;;;;;6.80;3.85;;;14.00;83.70;;;;;;5034935;28;20541;-79
2022/11/18 07:33:45;;;;;;;6.88;4.05;;;14.00;83.80;;;;;;5026568;28;20025;-79
2022/11/18 07:36:13;;;;;;;7.68;4.43;;;14.00;83.80;;;;;;5021865;28;20240;-80
2022/11/18 07:38:39;;;;;;;6.93;4.10;;;14.00;83.80;;;;;;5020928;28;20036;-80
2022/11/18 07:41:17;;;;;;;7.20;3.80;;;14.10;83.90;;;;;;5035220;28;20033;-78
2022/11/18 07:43:43;;;;;;;8.90;3.78;;;14.10;83.90;;;;;;5019186;28;20416;-78
2022/11/18 07:46:11;;;;;;;6.57;3.88;;;14.00;83.90;;;;;;5036169;28;20021;-78
2022/11/18 07:48:37;;;;;;;5.95;3.55;;;14.00;83.90;;;;;;5022425;28;20017;-82
2022/11/18 07:51:03;;;;;;;6.47;3.83;;;14.10;84.20;;;;;;5025869;28;20095;-78
2022/11/18 07:53:32;;;;;;;7.68;4.10;;;14.00;83.90;;;;;;5021136;28;20018;-79
2022/11/18 07:55:58;;;;;;;7.75;4.20;;;14.00;83.90;;;;;;5035024;28;20040;-78
2022/11/18 07:58:25;;;;;;;5.80;3.75;;;14.00;83.90;;;;;;5035826;28;20025;-80
2022/11/18 08:00:50;;;;;;;6.25;3.53;;;14.00;83.90;;;;;;5041184;28;20299;-80
2022/11/18 08:03:16;;;;;;;6.50;3.72;;;14.00;83.90;;;;;;5025366;28;20029;-80
2022/11/18 08:05:41;;;;;;;6.38;3.67;;;14.10;84.00;;;;;;5024000;28;20033;-79
2022/11/18 08:08:07;;;;;;;6.68;3.70;;;14.00;83.90;;;;;;5032871;28;20017;-81
2022/11/18 08:10:33;;;;;;;6.07;3.40;;;14.00;84.00;;;;;;5049643;28;20021;-81
2022/11/18 08:12:58;;;;;;;6.82;4.00;;;14.00;83.60;;;;;;5046380;28;20017;-82
2022/11/18 08:15:24;;;;;;;7.13;3.60;;;14.10;83.60;;;;;;5048713;28;20013;-80
2022/11/18 08:17:50;;;;;;;5.63;3.30;;;14.10;83.50;;;;;;5048404;28;20032;-80
2022/11/18 08:20:16;;;;;;;6.97;3.38;;;14.10;83.30;;;;;;5066417;28;20454;-81
2022/11/18 08:22:41;;;;;;;6.65;3.80;;;14.10;83.20;;;;;;5048972;28;20028;-80
2022/11/18 08:25:07;;;;;;;6.03;3.38;;;14.10;83.20;;;;;;5064188;28;20083;-79
2022/11/18 08:27:33;;;;;;;6.75;3.80;;;14.10;83.80;;;;;;5061429;28;20431;-79
2022/11/18 08:29:58;;;;;;;7.20;4.30;;;14.10;83.20;;;;;;5034068;28;20033;-77
2022/11/18 08:32:24;;;;;;;7.18;3.60;;;14.10;83.30;;;;;;5023252;28;20532;-81
2022/11/18 08:34:50;;;;;;;5.75;3.50;;;14.10;83.40;;;;;;5023301;28;20645;-80
2022/11/18 08:37:16;;;;;;;7.28;4.03;;;14.10;83.50;;;;;;5040048;28;20370;-77
2022/11/18 08:39:42;;;;;;;7.03;3.35;;;14.10;83.50;;;;;;5042282;28;20025;-78
2022/11/18 08:42:08;;;;;;;7.47;3.80;;;14.00;83.60;;;;;;5042481;28;20028;-79
2022/11/18 08:44:34;;;;;;;6.70;3.35;;;14.10;83.70;;;;;;5046945;28;20032;-79
2022/11/18 08:47:00;;;;;;;7.28;3.80;;;14.10;83.70;;;;;;5046154;28;20025;-78
2022/11/18 08:49:26;;;;;;;6.18;3.38;;;14.10;83.70;;;;;;5046704;28;20116;-80
2022/11/18 08:51:51;;;;;;;6.72;3.42;;;13.90;83.70;;;;;;5038708;28;20028;-81
2022/11/18 08:54:17;;;;;;;8.10;3.90;;;14.00;83.70;;;;;;5031835;28;20025;-82
2022/11/18 08:56:43;;;;;;;7.88;3.65;;;13.90;83.70;;;;;;5033307;28;20232;-79
2022/11/18 08:59:08;;;;;;;6.50;3.28;;;14.00;83.80;;;;;;5033161;28;20029;-81
2022/11/18 09:01:39;;;;;;;6.30;3.78;;;14.00;83.80;;;;;;5031459;28;20025;-81
2022/11/18 09:04:05;;;;;;;6.90;4.07;;;13.90;84.30;;;;;;5031197;28;20005;-81
2022/11/18 09:06:31;;;;;;;7.75;3.45;;;13.90;83.90;;;;;;5030731;28;20390;-82
2022/11/18 09:08:56;;;;;;;6.45;3.75;;;14.10;83.70;;;;;;5032787;28;20029;-82
2022/11/18 09:11:24;;;;;;;7.30;3.67;;;14.00;83.30;;;;;;5031765;28;20017;-81
2022/11/18 09:13:55;;;;;;;7.30;3.58;;;14.20;83.20;;;;;;5020979;28;20030;-80
2022/11/18 09:16:22;;;;;;;8.38;3.38;;;14.20;83.20;;;;;;5024306;28;20525;-82
2022/11/18 09:18:49;;;;;;;7.53;3.60;;;14.20;83.70;;;;;;5021733;28;20021;-79
2022/11/18 09:21:16;;;;;;;5.50;3.35;;;14.20;83.30;;;;;;5020201;28;20052;-80
2022/11/18 09:23:42;;;;;;;5.30;3.22;;;14.20;83.40;;;;;;5025838;28;20029;-81
2022/11/18 09:26:14;;;;;;;5.80;3.08;;;14.20;83.50;;;;;;5034116;28;20021;-82
2022/11/18 09:28:40;;;;;;;6.18;3.65;;;14.10;83.50;;;;;;5048356;28;20017;-82
2022/11/18 09:31:13;;;;;;;6.88;3.50;;;14.10;83.50;;;;;;5048501;28;20025;-80
2022/11/18 09:33:39;;;;;;;6.20;3.42;;;14.10;83.50;;;;;;5045388;28;20036;-81
2022/11/18 09:36:12;;;;;;;6.43;3.22;;;14.20;83.60;;;;;;5043574;28;20021;-79
2022/11/18 09:38:37;;;;;;;6.65;3.60;;;14.20;83.50;;;;;;5061847;28;20032;-79
2022/11/18 09:41:15;;;;;;;7.15;3.15;;;14.30;83.50;;;;;;5042628;28;20029;-77
2022/11/18 09:44:05;;;;;;;5.85;3.17;;;14.20;83.40;;;;;;5043841;28;20021;-78
2022/11/18 09:46:58;;;;;;;6.22;3.33;;;14.20;83.40;;;;;;5042392;28;20025;-78
2022/11/18 09:49:36;;;;;;;5.32;3.00;;;14.20;83.50;;;;;;5040691;28;20090;-79
2022/11/18 09:52:09;;;;;;;6.10;3.15;;;14.20;83.60;;;;;;5062228;28;20021;-77
2022/11/18 09:54:36;;;;;;;7.07;3.38;;;14.10;83.70;;;;;;5044805;28;20020;-79
2022/11/18 09:57:03;;;;;;;6.13;3.22;;;14.10;83.70;;;;;;5045738;28;20025;-80
2022/11/18 09:59:31;;;;;;;6.05;3.10;;;14.10;83.80;;;;;;5050986;28;20088;-82
2022/11/18 10:02:21;;;;;;;5.43;3.15;;;14.10;83.80;;;;;;5053177;28;20459;-79
2022/11/18 10:04:47;;;;;;;6.15;2.92;;;14.10;83.90;;;;;;5053102;28;20550;-81
2022/11/18 10:07:22;;;;;;;6.60;3.13;;;14.10;84.00;;;;;;5052071;28;20048;-82
2022/11/18 10:09:51;;;;;;;5.20;3.00;;;14.10;84.10;;;;;;5046289;28;20024;-80
2022/11/18 10:12:36;;;;;;;6.47;3.28;;;14.00;84.00;;;;;;5036503;28;20028;-83
2022/11/18 10:15:01;;;;;;;5.47;2.63;;;14.00;84.00;;;;;;5026524;28;20041;-80
2022/11/18 10:17:57;;;;;;;6.53;3.13;;;14.00;84.10;;;;;;5026007;28;20025;-79
2022/11/18 10:20:43;;;;;;;5.85;3.20;;;14.00;84.10;;;;;;5020798;28;20017;-77
2022/11/18 10:23:30;;;;;;;5.43;2.90;;;14.00;84.10;;;;;;5048696;28;20492;-76
2022/11/18 10:25:56;;;;;;;5.60;3.22;;;14.00;84.10;;;;;;5036115;28;20033;-78
2022/11/18 10:28:24;;;;;;;6.72;3.47;;;14.00;84.10;;;;;;5060492;28;20154;-81
2022/11/18 10:30:51;;;;;;;7.07;3.40;;;14.00;84.10;;;;;;5047550;28;20508;-81
2022/11/18 10:33:24;;;;;;;6.05;3.10;;;14.00;84.20;;;;;;5047150;28;20029;-79
2022/11/18 10:36:06;;;;;;;7.18;3.13;;;14.00;84.20;;;;;;5026165;28;20103;-77
2022/11/18 10:38:32;;;;;;;6.72;3.17;;;14.00;84.20;;;;;;5026287;28;20388;-76
2022/11/18 10:41:14;;;;;;;5.95;3.50;;;14.00;84.20;;;;;;5038845;28;20121;-77
2022/11/18 10:43:50;;;;;;;5.82;3.05;;;14.10;84.20;;;;;;5057107;28;20425;-75
2022/11/18 10:46:29;;;;;;;5.93;3.08;;;14.00;84.10;;;;;;5038803;28;20485;-75
2022/11/18 10:49:15;;;;;;;6.70;3.10;;;14.00;84.20;;;;;;5044705;28;20462;-76
2022/11/18 10:52:04;;;;;;;7.35;3.60;;;14.00;84.20;;;;;;5036991;28;20018;-76
2022/11/18 10:54:30;;;;;;;6.13;3.10;;;13.90;84.10;;;;;;5037101;28;20052;-80
2022/11/18 10:57:04;;;;;;;4.88;2.80;;;14.00;84.60;;;;;;5034688;28;20032;-77
2022/11/18 10:59:40;;;;;;;5.78;3.05;;;14.10;84.10;;;;;;5018596;28;20026;-79
2022/11/18 11:02:19;;;;;;;5.18;2.97;;;14.10;84.00;;;;;;5018298;28;20041;-81
2022/11/18 11:04:47;;;;;;;5.50;2.90;;;14.10;83.80;;;;;;5035175;28;20030;-79
2022/11/18 11:07:27;;;;;;;6.00;3.10;;;14.10;83.70;;;;;;5018958;28;20033;-79
2022/11/18 11:09:59;;;;;;;5.07;2.92;;;14.10;83.70;;;;;;5036797;28;20029;-79
2022/11/18 11:12:31;;;;;;;6.22;3.05;;;14.10;83.70;;;;;;5018298;28;20482;-79
2022/11/18 11:15:02;;;;;;;5.20;3.10;;;14.10;83.80;;;;;;5018367;28;20489;-78
2022/11/18 11:17:35;;;;;;;5.95;2.92;;;14.10;83.90;;;;;;5018594;28;20116;-81
2022/11/18 11:20:00;;;;;;;5.28;2.97;;;14.10;83.90;;;;;;5017191;28;20219;-78
2022/11/18 11:22:27;;;;;;;5.25;3.00;;;14.10;84.00;;;;;;5036211;28;20030;-81
2022/11/18 11:24:54;;;;;;;5.95;3.38;;;14.00;84.00;;;;;;5035597;28;20075;-79
2022/11/18 11:27:27;;;;;;;5.50;2.88;;;14.00;84.10;;;;;;5033952;28;20017;-79
2022/11/18 11:30:19;;;;;;;5.80;3.10;;;14.10;84.20;;;;;;5017973;28;20049;-79
2022/11/18 11:33:08;;;;;;;4.85;2.67;;;14.00;84.20;;;;;;5017400;28;20083;-80
2022/11/18 11:36:02;;;;;;;5.67;3.10;;;14.00;84.20;;;;;;5036587;28;20017;-80
2022/11/18 11:38:46;;;;;;;5.00;2.70;;;14.00;84.20;;;;;;5019836;28;20032;-81
2022/11/18 11:41:19;;;;;;;4.75;2.60;;;14.00;84.20;;;;;;5036431;28;20049;-81
2022/11/18 11:44:06;;;;;;;5.07;3.22;;;14.00;84.20;;;;;;5018564;28;20030;-80
2022/11/18 11:47:45;;;;;;;5.05;2.90;;;14.00;84.20;;;;;;5036409;28;20026;-79
2022/11/18 11:50:17;;;;;;;5.28;3.17;;;14.00;84.20;;;;;;5035057;28;20044;-79
2022/11/18 11:52:55;;;;;;;5.95;3.30;;;14.00;84.20;;;;;;5016731;28;20897;-78
2022/11/18 11:55:23;;;;;;;5.30;3.10;;;14.00;84.20;;;;;;5017262;28;20108;-80
2022/11/18 11:58:07;;;;;;;4.85;3.00;;;14.00;84.20;;;;;;5033734;28;20060;-80
2022/11/18 12:00:40;;;;;;;4.93;2.78;;;14.00;84.30;;;;;;5036696;28;20099;-81
2022/11/18 12:03:27;;;;;;;7.28;3.00;;;14.00;84.20;;;;;;5039186;28;20025;-79
2022/11/18 12:05:52;;;;;;;5.97;3.05;;;14.00;84.20;;;;;;5022406;28;20036;-80
2022/11/18 12:08:28;;;;;;;5.80;3.13;;;14.00;84.20;;;;;;5021054;28;20112;-80
2022/11/18 12:11:01;;;;;;;4.90;2.97;;;14.00;84.20;;;;;;5019774;28;20413;-80
2022/11/18 12:13:35;;;;;;;5.60;3.10;;;14.00;84.20;;;;;;5037737;28;20028;-78
2022/11/18 12:16:20;;;;;;;5.70;3.28;;;14.00;84.20;;;;;;5037531;28;20046;-80
2022/11/18 12:18:48;;;;;;;5.13;2.80;;;14.00;84.20;;;;;;5018995;28;20075;-80
2022/11/18 12:21:44;;;;;;;5.45;3.10;;;14.00;84.10;;;;;;5035740;28;20033;-80
2022/11/18 12:24:16;;;;;;;5.28;2.90;;;14.00;84.00;;;;;;5020516;28;20032;-80
2022/11/18 12:26:42;;;;;;;4.82;2.60;;;14.00;84.00;;;;;;5018811;28;20029;-82
2022/11/18 12:29:17;;;;;;;5.22;2.92;;;14.10;83.90;;;;;;5017935;28;20033;-80
2022/11/18 12:31:43;;;;;;;5.40;3.00;;;14.10;83.80;;;;;;5034880;28;20393;-81
2022/11/18 12:34:31;;;;;;;5.93;3.38;;;14.10;83.80;;;;;;5034863;28;20022;-81
2022/11/18 12:37:22;;;;;;;5.03;2.90;;;14.10;83.90;;;;;;5035178;28;20053;-80
2022/11/18 12:39:59;;;;;;;4.90;2.92;;;14.10;84.00;;;;;;5020227;28;20116;-81
2022/11/18 12:45:42;;;;;;;5.88;3.05;;;14.00;84.10;;;;;;5034508;28;20053;-78
2022/11/18 12:48:25;;;;;;;5.25;2.90;;;14.00;84.10;;;;;;5016514;28;20018;-79
2022/11/18 12:50:52;;;;;;;5.05;2.83;;;14.00;84.20;;;;;;5016680;28;20489;-80
2022/11/18 12:53:46;;;;;;;5.28;2.78;;;14.00;84.20;;;;;;5016787;28;20053;-80
2022/11/18 12:56:18;;;;;;;5.07;2.88;;;14.00;84.30;;;;;;5034749;28;20026;-79
2022/11/18 12:58:45;;;;;;;6.25;2.97;;;14.00;84.30;;;;;;5017290;28;20045;-80
2022/11/18 13:01:13;;;;;;;6.28;2.85;;;14.00;84.30;;;;;;5035022;28;20022;-81
2022/11/18 13:03:38;;;;;;;5.88;3.05;;;14.00;84.30;;;;;;5035377;28;20033;-81
2022/11/18 13:06:13;;;;;;;5.68;3.17;;;14.00;84.30;;;;;;5016116;28;20548;-80
2022/11/18 13:08:40;;;;;;;7.07;3.47;;;14.00;84.40;;;;;;5026678;28;20043;-81
2022/11/18 13:19:30;;;;;;;6.35;2.95;;;14.00;84.30;;;;;;5054815;28;20044;-80
2022/11/18 13:24:47;;;;;;;7.50;3.60;;;13.90;84.10;;;;;;5053692;28;20052;-82
2022/11/18 13:27:38;;;;;;;6.50;3.07;;;14.00;84.20;;;;;;5018713;28;20107;-82
2022/11/18 13:30:05;;;;;;;;;;;14.00;84.20;;;;;;5057220;28;20028;-81
2022/11/18 13:32:31;;;;;;;6.35;3.15;;;13.90;84.10;;;;;;5056666;28;19905;-82
2022/11/18 13:35:19;;;;;;;6.03;3.33;;;13.90;84.10;;;;;;5038650;28;20108;-80
2022/11/18 13:38:06;;;;;;;8.27;3.33;;;13.90;84.10;;;;;;5039827;28;20510;-82